YPKG

Details ICAO YPKG (KGI)
Name Kalgoorlie-Boulder
Region Australia
Timezone Australia/Perth (UTC+8.0)
Plans Departing 17
Arriving 16
Stats Elevation 1,202 ft / 366 m (AMSL)
Location -30.789118° 121.462802°
Runways 2
Magnetic Variation 0.863° E
Sunrise 2017-12-12 20:46:14 UTC / 2017-12-13 04:46:14 Local
Sunset 2017-12-13 10:52:59 UTC / 2017-12-13 18:52:59 Local
Advertisement - Login to hide

Runways

ID Width Length Bearing (true) Bearing (mag) Surface Threshold Offset Overrun Length
11 148 ft / 45 m 6,550 ft / 1,997 m 110.61° 109.75° Asphalt 0 ft / 0 m 0 ft / 0 m
18 59 ft / 18 m 3,949 ft / 1,204 m 5.53° 4.67° Asphalt 0 ft / 0 m 0 ft / 0 m
29 148 ft / 45 m 6,550 ft / 1,997 m 290.60° 289.74° Asphalt 0 ft / 0 m 0 ft / 0 m
36 59 ft / 18 m 3,949 ft / 1,204 m 185.53° 184.67° Asphalt 0 ft / 0 m 0 ft / 0 m

Map

Weather


0- 5 10 15 20 25 30 35+ Temperature / ° C

Clouds and Precipitation
Forecast for 2017-12-13 00:00 UTC. Updated an hour ago

Ground ~20,000 ft ~40,000 ft Winds

METAR

YPKG 122000Z AUTO 17012KT 9999 // NCD 16/12 Q1012

TAF

TAF YPKG 121715Z 1218/1318 17012KT CAVOK FM122000 17010KT 9999 SCT016 FM130000 18012KT CAVOK FM131400 14012KT CAVOK

Frequencies

Unicom 120.60 MHz ACTIVATE LIGHTS ONLY MULT
Unicom 122.10 MHz MELBOURNE CENTRE MULT
Unicom 126.60 MHz AIR BP UNIC
Warning: Do not use this data for real-world aviation or navigation. No guarantee of current accuracy is given.